This is the latest recevied weather packets stored in our database for station/object URMM. If no packets are shown the sender has not sent any weather packets the latest 10 day(s).
| Time | Temp. | Humidity | Pressure | Rain* | Wind** | Luminosity | Snow |
|---|---|---|---|---|---|---|---|
| 1778121045 | 10° C | 87% | 1018 hPa | - | - | - | - |
| 1778119244 | 10° C | 87% | 1017 hPa | - | - | - | - |
| 1778117444 | 10.56° C | 81% | 1017 hPa | - | - | - | - |
| 1778115644 | 10.56° C | 81% | 1017 hPa | - | - | - | - |
| 1778113845 | 10.56° C | 87% | 1017 hPa | - | - | - | - |
| 1778110245 | 12.78° C | 71% | 1017 hPa | - | - | - | - |
| 1778108444 | 12.78° C | 71% | 1017 hPa | - | - | - | - |
| 1778106644 | 12.78° C | 66% | 1017 hPa | - | - | - | - |
| 1778104846 | 12.78° C | 66% | 1017 hPa | - | - | - | - |
| 1778103045 | 13.89° C | 62% | 1017 hPa | - | - | - | - |
| 1778101245 | 12.78° C | 66% | 1017 hPa | - | - | - | - |
| 1778099446 | 12.78° C | 66% | 1017 hPa | - | - | - | - |
| 1778097647 | 11.67° C | 76% | 1017 hPa | - | - | - | - |
| 1778095845 | 12.78° C | 66% | 1017 hPa | - | - | - | - |
| 1778094045 | 11.67° C | 71% | 1017 hPa | - | - | - | - |
| 1778092245 | 11.67° C | 71% | 1017 hPa | - | - | - | - |
| 1778088645 | 13.89° C | 67% | 1016 hPa | - | - | - | - |
| 1778086845 | 13.89° C | 67% | 1016 hPa | - | - | - | - |
| 1778085046 | 15° C | 62% | 1016 hPa | - | - | - | - |
| 1778081447 | 15.56° C | 63% | 1015 hPa | - | - | - | - |
| 1778079645 | 16.67° C | 55% | 1015 hPa | - | - | - | - |
| 1778077845 | 17.78° C | 45% | 1015 hPa | - | - | - | - |
| 1778076046 | 17.78° C | 42% | 1014 hPa | - | - | - | - |
| 1778074246 | 18.89° C | 45% | 1014 hPa | - | - | - | - |
| 1778072445 | 18.89° C | 39% | 1014 hPa | - | - | - | - |
* Rain since midnight (hover to see other rain measurements)
** Current wind speed in m/s (hover to see current wind gust speed)